Terminal Aerodrome Forecast
Issued by NWS Charleston, SC

Home | Current Version | Previous Version | Text Only | Print | Product List | Glossary On
Versions: 1 2 3 4 5 6 7 8 9 10 11 12 13 14 15 16 17 18 19 20 21 22 23 24 25
000
FTUS42 KCHS 281135
TAFCHS
TAF
KCHS 281135Z 2812/2912 07010KT P6SM SCT060 BKN150
     FM282300 08005KT P6SM SCT050 BKN100
     FM290500 06008KT 6SM -SHRA FEW012 BKN025 OVC080=

USA.gov is the U.S. government's official web portal to all federal, state and local government web resources and services.